createdAt,value
2022-08-26T00:02:39.435Z,96987.06
2022-08-26T00:07:43.378Z,96989.31
2022-08-26T00:12:49.278Z,96992.38
2022-08-26T00:17:53.979Z,97000.91
2022-08-26T00:22:57.583Z,96993.50
2022-08-26T00:28:01.938Z,96996.41
2022-08-26T00:33:05.727Z,97008.63
2022-08-26T00:38:09.250Z,97020.03
2022-08-26T00:43:13.123Z,97029.84
2022-08-26T00:48:21.513Z,97020.19
2022-08-26T00:53:30.441Z,97039.81
2022-08-26T00:58:38.759Z,97033.22
2022-08-26T01:03:45.383Z,97044.63
2022-08-26T01:08:51.015Z,97053.63
2022-08-26T01:13:59.166Z,97057.47
2022-08-26T01:19:14.579Z,97059.75
2022-08-26T01:24:19.321Z,97052.97
2022-08-26T01:29:23.117Z,97056.38
2022-08-26T01:34:32.744Z,97052.03
2022-08-26T01:39:37.894Z,97054.94
2022-08-26T01:44:46.440Z,97061.53
2022-08-26T01:49:54.685Z,97059.75
2022-08-26T01:55:00.148Z,97060.56
2022-08-26T02:00:08.895Z,97061.53
2022-08-26T02:05:20.687Z,97068.59
2022-08-26T02:10:24.413Z,97061.88
2022-08-26T02:15:29.739Z,97070.69
2022-08-26T02:20:34.896Z,97067.00
2022-08-26T02:25:58.532Z,97079.69
2022-08-26T02:31:02.696Z,97073.75
2022-08-26T02:36:06.905Z,97072.44
2022-08-26T02:41:11.150Z,97077.75
2022-08-26T02:46:21.430Z,97083.50
2022-08-26T02:51:33.146Z,97082.53
2022-08-26T02:56:36.556Z,97084.47
2022-08-26T03:01:40.419Z,97090.75
2022-08-26T03:06:44.307Z,97090.75
2022-08-26T03:11:55.943Z,97095.41
2022-08-26T03:16:59.103Z,97096.34
2022-08-26T03:22:02.568Z,97105.06
2022-08-26T03:27:07.334Z,97110.69
2022-08-26T03:32:11.127Z,97110.41
2022-08-26T03:37:14.440Z,97112.94
2022-08-26T03:42:17.941Z,97111.03
2022-08-26T03:47:24.990Z,97109.91
2022-08-26T03:52:31.062Z,97120.03
2022-08-26T03:57:34.978Z,97127.59
2022-08-26T04:02:38.520Z,97128.56
2022-08-26T04:07:44.744Z,97136.59
2022-08-26T04:12:48.399Z,97136.28
2022-08-26T04:17:51.941Z,97130.66
2022-08-26T04:22:55.367Z,97133.41
2022-08-26T04:27:59.342Z,97126.66
2022-08-26T04:33:02.655Z,97128.56
2022-08-26T04:38:09.031Z,97129.84
2022-08-26T04:43:12.757Z,97132.28
2022-08-26T04:48:16.896Z,97139.34
2022-08-26T04:53:20.524Z,97138.22
2022-08-26T04:58:25.661Z,97145.72
2022-08-26T05:03:30.537Z,97155.81
2022-08-26T05:08:34.535Z,97160.16
2022-08-26T05:13:38.201Z,97161.00
2022-08-26T05:18:43.737Z,97162.03
2022-08-26T05:23:49.513Z,97159.72
2022-08-26T05:28:54.941Z,97168.78
2022-08-26T05:34:00.398Z,97158.25
2022-08-26T05:39:07.988Z,97169.09
2022-08-26T05:44:15.590Z,97168.72
2022-08-26T05:49:19.827Z,97174.09
2022-08-26T05:54:23.359Z,97170.50
2022-08-26T05:59:27.314Z,97176.19
2022-08-26T06:04:30.785Z,97182.19
2022-08-26T06:09:37.520Z,97172.81
2022-08-26T06:14:42.908Z,97181.22
2022-08-26T06:19:46.475Z,97186.66
2022-08-26T06:24:50.087Z,97185.25
2022-08-26T06:29:54.666Z,97187.91
2022-08-26T06:34:58.342Z,97191.41
2022-08-26T06:40:02.615Z,97194.41
2022-08-26T06:45:08.422Z,97187.75
2022-08-26T06:50:11.959Z,97197.97
2022-08-26T07:00:39.515Z,97206.44
2022-08-26T07:05:45.552Z,97206.09
2022-08-26T07:10:48.788Z,97212.94
2022-08-26T07:15:57.309Z,97205.06
2022-08-26T07:21:07.182Z,97215.13
2022-08-26T07:26:14.988Z,97215.38
2022-08-26T07:31:20.582Z,97219.25
2022-08-26T07:36:30.321Z,97212.84
2022-08-26T07:41:43.859Z,97210.84
2022-08-26T07:46:53.307Z,97214.38
2022-08-26T07:51:56.995Z,97217.69
2022-08-26T07:57:00.919Z,97210.97
2022-08-26T08:02:08.998Z,97207.28
2022-08-26T08:07:17.789Z,97197.94
2022-08-26T08:12:21.582Z,97196.66
2022-08-26T08:17:25.026Z,97188.34
2022-08-26T08:22:28.942Z,97192.63
2022-08-26T08:27:35.092Z,97189.63
2022-08-26T08:32:38.907Z,97201.66
2022-08-26T08:37:46.231Z,97193.91
2022-08-26T08:43:10.604Z,97197.13
2022-08-26T08:48:28.009Z,97187.97
2022-08-26T08:53:38.128Z,97187.97
2022-08-26T08:59:01.160Z,97192.97
2022-08-26T09:04:19.837Z,97193.53
2022-08-26T09:09:47.488Z,97198.88
2022-08-26T09:14:53.244Z,97183.97
2022-08-26T09:20:39.526Z,97185.00
2022-08-26T09:31:27.827Z,97172.91
2022-08-26T09:36:41.689Z,97188.50
2022-08-26T09:41:45.349Z,97183.97
2022-08-26T09:46:57.494Z,97182.75
2022-08-26T09:52:07.003Z,97183.03
2022-08-26T09:57:32.279Z,97183.16
2022-08-26T10:02:39.207Z,97184.28
2022-08-26T10:07:51.370Z,97181.25
2022-08-26T10:13:25.034Z,97175.13
2022-08-26T10:18:56.850Z,97178.41
2022-08-26T10:24:05.122Z,97180.56
2022-08-26T10:29:23.296Z,97172.91
2022-08-26T10:34:27.091Z,97170.25
2022-08-26T10:39:58.990Z,97173.50
2022-08-26T10:45:16.041Z,97173.50
2022-08-26T10:50:31.785Z,97174.09
2022-08-26T10:56:18.970Z,97172.50
2022-08-26T11:01:41.436Z,97173.06
2022-08-26T11:06:47.282Z,97172.78
2022-08-26T11:11:53.708Z,97174.47
2022-08-26T11:16:58.739Z,97176.56
2022-08-26T11:22:06.481Z,97171.50
2022-08-26T11:27:33.843Z,97166.13
2022-08-26T11:32:40.111Z,97169.38
2022-08-26T11:37:48.493Z,97159.50
2022-08-26T11:42:57.329Z,97168.75
2022-08-26T11:48:34.099Z,97162.63
2022-08-26T11:53:40.850Z,97150.69
2022-08-26T11:58:46.220Z,97154.44
2022-08-26T12:03:51.442Z,97151.94
2022-08-26T12:08:59.330Z,97144.69
2022-08-26T12:14:20.333Z,97136.47
2022-08-26T12:19:32.858Z,97130.63
2022-08-26T12:24:42.618Z,97133.56
2022-08-26T12:30:00.033Z,97121.09
2022-08-26T12:35:12.274Z,97123.94
2022-08-26T12:40:48.341Z,97121.75
2022-08-26T12:45:59.600Z,97103.34
2022-08-26T12:51:03.898Z,97109.66
2022-08-26T12:56:22.859Z,97110.16
2022-08-26T13:01:26.716Z,97096.97
2022-08-26T13:06:30.347Z,97088.72
2022-08-26T13:11:39.702Z,97088.38
2022-08-26T13:16:44.684Z,97089.53
2022-08-26T13:21:55.251Z,97083.00
2022-08-26T13:27:01.989Z,97077.50
2022-08-26T13:32:06.794Z,97078.88
2022-08-26T13:37:10.318Z,97069.56
2022-08-26T13:42:13.765Z,97066.56
2022-08-26T13:47:18.102Z,97067.28
2022-08-26T13:52:30.209Z,97071.84
2022-08-26T13:57:34.526Z,97068.97
2022-08-26T14:02:38.074Z,97062.00
2022-08-26T14:07:41.780Z,97065.19
2022-08-26T14:12:45.779Z,97063.16
2022-08-26T14:17:50.367Z,97070.34
2022-08-26T14:28:18.079Z,97050.38
2022-08-26T14:33:25.741Z,97048.66
2022-08-26T14:38:29.865Z,97054.03
2022-08-26T14:43:33.310Z,97048.28
2022-08-26T14:48:36.877Z,97040.00
2022-08-26T14:53:40.345Z,97040.56
2022-08-26T14:58:43.895Z,97041.91
2022-08-26T15:03:47.335Z,97033.75
2022-08-26T15:08:51.006Z,97030.84
2022-08-26T15:13:54.550Z,97031.75
2022-08-26T15:18:58.385Z,97028.63
2022-08-26T15:24:04.500Z,97028.84
2022-08-26T15:29:07.990Z,97017.97
2022-08-26T15:34:16.343Z,97022.50
2022-08-26T15:39:20.296Z,97019.75
2022-08-26T15:44:25.480Z,97018.34
2022-08-26T15:49:28.997Z,97025.47
2022-08-26T15:54:32.574Z,97010.72
2022-08-26T15:59:36.055Z,97006.53
2022-08-26T16:04:40.054Z,97003.53
2022-08-26T16:09:43.418Z,97002.75
2022-08-26T16:14:47.085Z,97006.53
2022-08-26T16:19:50.724Z,97006.09
2022-08-26T16:24:58.321Z,97009.00
2022-08-26T16:30:01.821Z,97011.44
2022-08-26T16:35:07.103Z,97019.50
2022-08-26T16:40:11.277Z,97018.22
2022-08-26T16:45:14.697Z,97011.81
2022-08-26T16:50:20.820Z,97019.81
2022-08-26T16:55:24.380Z,97024.00
2022-08-26T17:00:30.879Z,97028.72
2022-08-26T17:05:34.472Z,97026.59
2022-08-26T17:10:41.060Z,97033.22
2022-08-26T17:15:49.014Z,97038.34
2022-08-26T17:20:54.140Z,97048.16
2022-08-26T17:25:57.660Z,97051.53
2022-08-26T17:31:01.373Z,97056.53
2022-08-26T17:36:09.754Z,97066.97
2022-08-26T17:41:14.065Z,97073.09
2022-08-26T17:46:17.451Z,97082.56
2022-08-26T17:51:21.665Z,97083.38
2022-08-26T17:56:27.438Z,97085.16
2022-08-26T18:01:32.169Z,97085.47
2022-08-26T18:06:35.644Z,97086.94
2022-08-26T18:11:40.720Z,97095.13
2022-08-26T18:16:44.431Z,97093.34
2022-08-26T18:21:47.785Z,97095.63
2022-08-26T18:26:54.518Z,97094.81
2022-08-26T18:31:57.826Z,97095.94
2022-08-26T18:37:01.247Z,97092.25
2022-08-26T18:42:04.850Z,97107.03
2022-08-26T18:47:07.978Z,97106.84
2022-08-26T18:52:12.663Z,97110.72
2022-08-26T18:57:16.582Z,97117.31
2022-08-26T19:02:20.087Z,97118.59
2022-08-26T19:07:24.570Z,97113.13
2022-08-26T19:12:28.233Z,97114.25
2022-08-26T19:17:32.143Z,97117.97
2022-08-26T19:22:35.417Z,97114.56
2022-08-26T19:27:38.826Z,97114.56
2022-08-26T19:33:37.230Z,97113.28
2022-08-26T19:38:40.854Z,97115.53
2022-08-26T19:43:44.393Z,97120.84
2022-08-26T19:48:54.058Z,97120.84
2022-08-26T19:54:01.576Z,97123.59
2022-08-26T19:59:05.331Z,97127.41
2022-08-26T20:04:08.795Z,97134.00
2022-08-26T20:09:12.183Z,97133.19
2022-08-26T20:14:15.400Z,97136.59
2022-08-26T20:19:18.781Z,97132.06
2022-08-26T20:24:24.324Z,97138.81
2022-08-26T20:29:27.860Z,97148.47
2022-08-26T20:34:32.586Z,97142.50
2022-08-26T20:39:36.820Z,97151.78
2022-08-26T20:44:43.288Z,97143.91
2022-08-26T20:49:59.360Z,97146.66
2022-08-26T20:55:02.779Z,97149.69
2022-08-26T21:00:06.859Z,97145.69
2022-08-26T21:05:11.705Z,97135.88
2022-08-26T21:10:15.492Z,97141.19
2022-08-26T21:15:19.805Z,97144.38
2022-08-26T21:20:23.628Z,97132.34
2022-08-26T21:25:27.830Z,97131.84
2022-08-26T21:30:31.777Z,97141.97
2022-08-26T21:35:35.298Z,97137.97
2022-08-26T21:40:39.341Z,97131.53
2022-08-26T21:45:43.029Z,97137.31
2022-08-26T21:50:46.598Z,97133.78
2022-08-26T21:55:52.374Z,97132.66
2022-08-26T22:00:55.770Z,97132.13
2022-08-26T22:05:59.355Z,97131.66
2022-08-26T22:11:04.153Z,97123.94
2022-08-26T22:16:08.406Z,97126.38
2022-08-26T22:21:20.962Z,97123.34
2022-08-26T22:26:27.293Z,97120.13
2022-08-26T22:31:37.294Z,97119.28
2022-08-26T22:36:44.396Z,97119.28
2022-08-26T22:41:49.027Z,97123.66
2022-08-26T22:46:53.467Z,97121.72
2022-08-26T22:51:57.379Z,97117.06
2022-08-26T22:57:01.286Z,97127.66
2022-08-26T23:02:05.077Z,97120.59
2022-08-26T23:07:13.294Z,97111.28
2022-08-26T23:12:17.305Z,97110.47
2022-08-26T23:17:23.347Z,97114.81
2022-08-26T23:22:29.126Z,97110.16
2022-08-26T23:27:38.109Z,97111.09
2022-08-26T23:32:42.369Z,97114.16
2022-08-26T23:37:46.931Z,97124.59
2022-08-26T23:42:57.645Z,97125.41
2022-08-26T23:48:01.953Z,97110.94
2022-08-26T23:53:05.280Z,97119.94
2022-08-26T23:58:09.024Z,97120.75
